Time;durP1;ratioP1;P1;durP2;ratioP2;P2;SDS_P1;SDS_P2;PMS_P1;PMS_P2;Temp;Humidity;BMP_temperature;BMP_pressure;BME280_temperature;BME280_humidity;BME280_pressure;Samples;Min_cycle;Max_cycle;Signal;HPM_P1;HPM_P2
2023/09/02 00:01:12;;;;;;;1.98;1.15;;;;;;;13.55;100.00;101797.91;5066291;28;20040;-77
2023/09/02 00:03:39;;;;;;;2.78;1.30;;;;;;;13.49;100.00;101793.44;5057376;28;20048;-75
2023/09/02 00:06:07;;;;;;;2.00;1.23;;;;;;;13.44;100.00;101796.09;5050226;28;20587;-76
2023/09/02 00:08:34;;;;;;;2.25;1.17;;;;;;;13.42;100.00;101792.53;5061656;28;20056;-76
2023/09/02 00:11:01;;;;;;;1.33;1.23;;;;;;;13.40;100.00;101796.03;5027677;28;20068;-76
2023/09/02 00:13:29;;;;;;;3.33;1.30;;;;;;;13.36;100.00;101795.13;5042669;28;20049;-77
2023/09/02 00:15:56;;;;;;;3.20;1.40;;;;;;;13.35;100.00;101800.44;5049733;28;20049;-76
2023/09/02 00:18:24;;;;;;;1.38;1.27;;;;;;;13.31;100.00;101802.19;5045236;28;20055;-76
2023/09/02 00:20:52;;;;;;;2.55;1.38;;;;;;;13.29;100.00;101798.59;5033911;28;20045;-76
2023/09/02 00:23:19;;;;;;;1.40;1.30;;;;;;;13.26;100.00;101799.44;5063298;28;20041;-77
2023/09/02 00:25:47;;;;;;;2.20;1.23;;;;;;;13.23;100.00;101794.16;5023234;28;20044;-76
2023/09/02 00:28:14;;;;;;;1.77;1.67;;;;;;;13.21;100.00;101795.00;5049580;28;20067;-77
2023/09/02 00:30:42;;;;;;;1.45;1.35;;;;;;;13.19;100.00;101799.38;5064707;28;20044;-76
2023/09/02 00:33:10;;;;;;;2.80;1.90;;;;;;;13.15;100.00;101798.47;5033721;28;20041;-77
2023/09/02 00:35:37;;;;;;;2.60;1.73;;;;;;;13.14;100.00;101803.78;5037213;28;20051;-77
2023/09/02 00:38:04;;;;;;;2.40;1.63;;;;;;;13.11;100.00;101801.97;5047168;28;20048;-77
2023/09/02 00:40:33;;;;;;;2.08;1.38;;;;;;;13.10;100.00;101802.88;5063899;28;20377;-77
2023/09/02 00:43:02;;;;;;;1.63;1.52;;;;;;;13.07;100.00;101797.53;5041545;28;20556;-77
2023/09/02 00:45:29;;;;;;;1.88;1.33;;;;;;;13.05;100.00;101797.53;5049917;28;20045;-76
2023/09/02 00:47:59;;;;;;;1.25;1.15;;;;;;;13.02;100.00;101800.16;5043716;28;20056;-77
2023/09/02 00:50:27;;;;;;;2.88;1.73;;;;;;;12.99;100.00;101801.91;5030395;28;20048;-77
2023/09/02 00:52:54;;;;;;;1.45;1.30;;;;;;;12.97;100.00;101798.34;5047060;28;20053;-77
2023/09/02 00:55:22;;;;;;;2.55;1.63;;;;;;;12.94;100.00;101804.47;5064883;28;20044;-76
2023/09/02 00:57:49;;;;;;;3.17;1.88;;;;;;;12.93;100.00;101805.38;5010140;28;20047;-77
2023/09/02 01:00:17;;;;;;;1.55;1.45;;;;;;;12.90;100.00;101809.75;5032645;28;20037;-77
2023/09/02 01:02:46;;;;;;;3.50;1.70;;;;;;;12.88;100.00;101815.91;5057454;28;20053;-77
2023/09/02 01:05:15;;;;;;;3.67;1.98;;;;;;;12.86;100.00;101814.13;5038168;28;20575;-76
2023/09/02 01:07:43;;;;;;;2.95;1.67;;;;;;;12.84;100.00;101814.09;5033790;28;20052;-77
2023/09/02 01:10:10;;;;;;;2.25;1.90;;;;;;;12.84;100.00;101815.88;5062159;28;20048;-77
2023/09/02 01:12:38;;;;;;;2.83;1.98;;;;;;;12.82;100.00;101826.44;5027496;28;20043;-77
2023/09/02 01:15:06;;;;;;;1.92;1.77;;;;;;;12.81;100.00;101822.00;5064663;28;20055;-77
2023/09/02 01:17:33;;;;;;;3.75;1.88;;;;;;;12.78;100.00;101811.41;5045422;28;20052;-77
2023/09/02 01:20:03;;;;;;;2.40;2.13;;;;;;;12.76;100.00;101821.09;5050939;28;20147;-77
2023/09/02 01:22:40;;;;;;;2.13;1.92;;;;;;;12.75;100.00;101819.28;5050339;28;20044;-76
2023/09/02 01:25:15;;;;;;;2.58;1.80;;;;;;;12.72;100.00;101816.66;5060244;28;20060;-76
2023/09/02 01:28:10;;;;;;;2.17;1.98;;;;;;;12.70;100.00;101821.00;5029660;28;20413;-76
2023/09/02 01:30:40;;;;;;;1.90;1.80;;;;;;;12.68;100.00;101815.72;5052546;28;20049;-76
2023/09/02 01:33:09;;;;;;;2.42;1.95;;;;;;;12.66;100.00;101825.41;5066705;28;20056;-77
2023/09/02 01:35:37;;;;;;;2.38;2.10;;;;;;;12.66;100.00;101824.50;5067206;28;20056;-77
2023/09/02 01:38:06;;;;;;;2.45;1.92;;;;;;;12.64;100.00;101832.41;5050916;28;20045;-76
2023/09/02 01:40:35;;;;;;;2.13;2.03;;;;;;;12.63;100.00;101821.84;5047125;28;20048;-77
2023/09/02 01:43:04;;;;;;;2.03;1.85;;;;;;;12.60;100.00;101829.72;5025251;28;20418;-77
2023/09/02 01:45:34;;;;;;;2.60;1.90;;;;;;;12.58;100.00;101827.06;5033529;28;20421;-76
2023/09/02 01:48:03;;;;;;;2.60;2.00;;;;;;;12.57;100.00;101827.94;5054834;28;20409;-76
2023/09/02 01:50:33;;;;;;;3.20;2.40;;;;;;;12.55;100.00;101827.06;5052408;28;20056;-77
2023/09/02 01:53:02;;;;;;;2.83;2.10;;;;;;;12.53;100.00;101827.88;5042143;28;20055;-77
2023/09/02 01:55:32;;;;;;;2.35;2.15;;;;;;;12.51;100.00;101832.25;5072492;28;20044;-76
2023/09/02 01:58:00;;;;;;;2.60;2.40;;;;;;;12.50;100.00;101835.81;5004063;28;20878;-77
2023/09/02 02:00:28;;;;;;;2.60;2.20;;;;;;;12.48;100.00;101831.38;5042990;28;20060;-77
2023/09/02 02:02:56;;;;;;;3.05;2.38;;;;;;;12.48;100.00;101841.06;5061227;28;20522;-77
2023/09/02 02:05:32;;;;;;;3.40;3.10;;;;;;;12.45;100.00;101836.59;5049342;28;20056;-77
2023/09/02 02:08:04;;;;;;;3.78;3.08;;;;;;;12.43;100.00;101835.72;5064995;28;20358;-77
2023/09/02 02:10:34;;;;;;;3.80;3.08;;;;;;;12.41;100.00;101839.22;5042521;28;20037;-76
2023/09/02 02:13:02;;;;;;;3.75;2.95;;;;;;;12.41;100.00;101839.22;5060436;28;20161;-76
2023/09/02 02:15:29;;;;;;;3.10;2.88;;;;;;;12.40;100.00;101838.34;5017740;28;20052;-76
2023/09/02 02:17:57;;;;;;;5.60;3.65;;;;;;;12.40;100.00;101840.97;5035377;28;20048;-77
2023/09/02 02:20:44;;;;;;;3.83;3.22;;;;;;;12.39;100.00;101841.84;5044577;28;20052;-77
2023/09/02 02:23:11;;;;;;;4.57;3.13;;;;;;;12.38;100.00;101847.09;5061290;28;20047;-77
2023/09/02 02:25:40;;;;;;;3.35;3.05;;;;;;;12.36;100.00;101840.91;5050014;28;20049;-77
2023/09/02 02:28:07;;;;;;;5.20;3.70;;;;;;;12.35;100.00;101834.75;5065310;28;20037;-78
2023/09/02 02:30:35;;;;;;;3.90;3.50;;;;;;;12.34;100.00;101832.06;5014995;28;20055;-77
2023/09/02 02:33:03;;;;;;;4.82;3.92;;;;;;;12.32;100.00;101837.34;5016962;28;20048;-76
2023/09/02 02:35:31;;;;;;;3.92;3.50;;;;;;;12.31;100.00;101835.59;5068312;28;20048;-77
2023/09/02 02:37:59;;;;;;;4.85;3.63;;;;;;;12.30;100.00;101836.44;5065683;28;20054;-76
2023/09/02 02:40:27;;;;;;;3.95;3.65;;;;;;;12.29;100.00;101839.97;5066896;28;20060;-77
2023/09/02 02:42:54;;;;;;;4.50;4.00;;;;;;;12.28;100.00;101844.34;5064599;28;20075;-77
2023/09/02 02:45:22;;;;;;;4.97;4.57;;;;;;;12.28;100.00;101840.81;5068505;28;20115;-77
2023/09/02 02:47:49;;;;;;;4.72;3.97;;;;;;;12.28;100.00;101843.47;4997132;28;20055;-79
2023/09/02 02:50:17;;;;;;;5.00;3.42;;;;;;;12.27;100.00;101842.59;5067227;28;20092;-77
2023/09/02 02:52:44;;;;;;;5.45;3.67;;;;;;;12.25;100.00;101843.44;5045350;28;20052;-77
2023/09/02 02:55:12;;;;;;;4.63;4.22;;;;;;;12.24;100.00;101844.31;5064347;28;20417;-77
2023/09/02 02:57:40;;;;;;;6.13;3.85;;;;;;;12.23;100.00;101843.41;5048859;28;20049;-78
2023/09/02 03:00:10;;;;;;;4.45;3.38;;;;;;;12.22;100.00;101848.69;5032165;28;20418;-77
2023/09/02 03:02:38;;;;;;;6.65;3.75;;;;;;;12.19;100.00;101843.34;5020178;28;20059;-76
2023/09/02 03:05:06;;;;;;;3.47;3.20;;;;;;;12.18;100.00;101849.50;5028634;28;20505;-77
2023/09/02 03:07:33;;;;;;;7.47;4.57;;;;;;;12.15;100.00;101838.91;5063476;28;20059;-77
2023/09/02 03:10:03;;;;;;;5.32;4.78;;;;;;;12.14;100.00;101837.13;5030688;28;20064;-77
2023/09/02 03:12:30;;;;;;;5.78;4.88;;;;;;;12.13;100.00;101849.44;5017292;28;20052;-78
2023/09/02 03:14:58;;;;;;;5.47;4.50;;;;;;;12.11;100.00;101853.81;5046862;28;20051;-76
2023/09/02 03:17:27;;;;;;;4.60;4.10;;;;;;;12.10;100.00;101854.72;5047121;28;20525;-77
2023/09/02 03:19:55;;;;;;;4.80;4.40;;;;;;;12.09;100.00;101845.88;5021742;28;20080;-77
2023/09/02 03:22:23;;;;;;;7.00;4.53;;;;;;;12.07;100.00;101852.88;5045042;28;20060;-77
2023/09/02 03:24:55;;;;;;;10.40;6.90;;;;;;;12.05;100.00;101854.63;5055620;28;20052;-79
2023/09/02 03:27:26;;;;;;;8.13;6.28;;;;;;;12.06;100.00;101858.16;5056927;28;20049;-77
2023/09/02 03:29:56;;;;;;;13.82;6.20;;;;;;;12.04;100.00;101852.88;5054802;28;20044;-78
2023/09/02 03:32:26;;;;;;;7.47;5.25;;;;;;;12.03;100.00;101860.78;5030223;28;20048;-77
2023/09/02 03:34:54;;;;;;;6.70;5.10;;;;;;;12.01;100.00;101857.22;5000925;28;20048;-76
2023/09/02 03:37:22;;;;;;;8.38;4.55;;;;;;;12.01;100.00;101858.09;5058634;28;20056;-77
2023/09/02 03:39:50;;;;;;;6.38;4.75;;;;;;;11.99;100.00;101862.47;5037439;28;20056;-77
2023/09/02 03:42:17;;;;;;;5.10;4.60;;;;;;;12.01;100.00;101865.16;5063937;28;20051;-77
2023/09/02 03:44:44;;;;;;;6.22;5.10;;;;;;;12.00;100.00;101868.63;5045865;28;20040;-78
2023/09/02 03:47:12;;;;;;;4.85;4.07;;;;;;;12.00;100.00;101871.28;5037630;28;20041;-77
2023/09/02 03:49:40;;;;;;;6.25;4.53;;;;;;;11.99;100.00;101873.03;5035286;28;20044;-78
2023/09/02 03:52:08;;;;;;;4.68;4.28;;;;;;;12.00;100.00;101871.28;4985911;28;1118938;-77
2023/09/02 03:54:36;;;;;;;6.15;4.57;;;;;;;11.98;100.00;101868.63;5073943;28;20059;-77
2023/09/02 03:57:05;;;;;;;5.65;4.32;;;;;;;11.98;100.00;101873.91;5062796;28;20063;-76
2023/09/02 03:59:32;;;;;;;5.45;4.07;;;;;;;11.97;100.00;101873.91;5030411;28;20060;-76
2023/09/02 04:02:00;;;;;;;6.20;4.35;;;;;;;11.96;100.00;101872.13;5036957;28;20044;-76
2023/09/02 04:04:27;;;;;;;4.68;4.18;;;;;;;11.95;100.00;101871.22;5046693;28;20049;-76
2023/09/02 04:06:54;;;;;;;7.60;4.75;;;;;;;11.95;100.00;101871.22;5012881;28;20059;-76
2023/09/02 04:09:22;;;;;;;5.75;4.63;;;;;;;11.95;100.00;101870.34;5038548;28;20053;-77
2023/09/02 04:11:49;;;;;;;5.35;4.78;;;;;;;11.95;100.00;101865.94;5050783;28;20053;-77
2023/09/02 04:14:18;;;;;;;4.85;4.35;;;;;;;11.94;100.00;101869.44;5060337;28;20063;-77
2023/09/02 04:16:45;;;;;;;4.78;4.25;;;;;;;11.94;100.00;101879.13;5032115;28;20052;-76
2023/09/02 04:19:17;;;;;;;7.50;4.80;;;;;;;11.93;100.00;101872.97;5049502;28;20063;-77
2023/09/02 04:21:46;;;;;;;6.43;4.28;;;;;;;11.93;100.00;101885.25;5021830;28;20049;-77
2023/09/02 04:24:14;;;;;;;5.10;4.50;;;;;;;11.92;100.00;101883.50;5036005;28;20048;-77
2023/09/02 04:26:42;;;;;;;4.60;4.20;;;;;;;11.90;100.00;101884.34;5047798;28;20056;-77
2023/09/02 04:29:09;;;;;;;5.25;4.75;;;;;;;11.91;100.00;101880.00;5066091;28;20052;-77
2023/09/02 04:31:37;;;;;;;6.18;4.65;;;;;;;11.89;100.00;101882.59;5063308;28;20517;-77
2023/09/02 04:34:04;;;;;;;5.55;4.50;;;;;;;11.88;100.00;101890.47;5047872;28;20067;-76
2023/09/02 04:36:32;;;;;;;8.18;4.40;;;;;;;11.88;100.00;101890.47;4995242;28;20060;-77
2023/09/02 04:38:59;;;;;;;4.70;4.30;;;;;;;11.87;100.00;101892.22;5065387;28;20516;-77
2023/09/02 04:41:28;;;;;;;6.85;5.07;;;;;;;11.89;100.00;101908.09;5037713;28;20040;-76
2023/09/02 04:43:57;;;;;;;7.50;6.15;;;;;;;11.89;100.00;101908.09;5039619;28;20597;-76
2023/09/02 04:46:24;;;;;;;8.43;6.40;;;;;;;11.87;100.00;101910.72;5058064;28;20060;-77
2023/09/02 04:48:53;;;;;;;9.70;6.13;;;;;;;11.88;100.00;101911.59;5047396;28;20055;-77
2023/09/02 04:51:20;;;;;;;5.97;5.35;;;;;;;11.87;100.00;101913.34;5048514;28;20386;-77
2023/09/02 04:53:49;;;;;;;5.70;4.32;;;;;;;11.88;100.00;101904.53;5009783;28;20045;-77
2023/09/02 04:56:16;;;;;;;7.13;4.75;;;;;;;11.89;100.00;101903.72;5037090;28;20049;-77
2023/09/02 04:58:44;;;;;;;7.63;4.85;;;;;;;11.91;100.00;101909.03;5044509;28;20402;-77
2023/09/02 05:01:15;;;;;;;6.80;5.30;;;;;;;11.93;100.00;101907.31;5043447;28;20047;-77
2023/09/02 05:03:47;;;;;;;6.28;5.30;;;;;;;11.95;100.00;101913.50;5029706;28;20044;-76
2023/09/02 05:06:15;;;;;;;5.63;5.07;;;;;;;11.97;100.00;101916.16;5022618;28;20049;-77
2023/09/02 05:08:45;;;;;;;7.40;4.30;;;;;;;11.99;100.00;101914.44;5015211;28;20411;-77
2023/09/02 05:11:16;;;;;;;5.47;4.57;;;;;;;12.03;100.00;101916.25;5011646;28;20069;-77
2023/09/02 05:13:44;;;;;;;7.10;4.57;;;;;;;12.06;100.00;101917.19;5042627;28;20040;-77
2023/09/02 05:16:11;;;;;;;4.75;4.32;;;;;;;12.12;100.00;101915.47;5037295;28;20048;-77
2023/09/02 05:18:38;;;;;;;5.63;5.03;;;;;;;12.17;100.00;101921.72;5043741;28;20489;-76
2023/09/02 05:21:06;;;;;;;7.75;5.07;;;;;;;12.22;100.00;101920.03;5064461;28;20052;-77
2023/09/02 05:23:34;;;;;;;6.82;5.82;;;;;;;12.26;100.00;101925.38;5024641;28;20053;-77
2023/09/02 05:26:02;;;;;;;5.25;4.75;;;;;;;12.29;100.00;101929.81;5032202;28;20056;-77
2023/09/02 05:28:30;;;;;;;4.65;4.20;;;;;;;12.33;100.00;101942.22;5023988;28;20811;-77
2023/09/02 05:30:58;;;;;;;7.18;5.13;;;;;;;12.40;100.00;101932.59;5049486;28;20052;-77
2023/09/02 05:33:25;;;;;;;7.10;5.28;;;;;;;12.45;100.00;101936.19;5044713;28;20056;-76
2023/09/02 05:35:54;;;;;;;5.95;4.95;;;;;;;12.51;100.00;101940.66;5062881;28;20118;-77
2023/09/02 05:38:21;;;;;;;5.40;4.85;;;;;;;12.57;100.00;101938.09;5049771;28;20404;-77
2023/09/02 05:40:49;;;;;;;5.60;5.07;;;;;;;12.62;100.00;101939.91;5027028;28;20071;-78
2023/09/02 05:43:17;;;;;;;6.53;4.63;;;;;;;12.69;100.00;101938.25;5035537;28;20048;-76
2023/09/02 05:45:47;;;;;;;7.68;5.70;;;;;;;12.75;100.00;101948.91;5032214;28;20433;-77
2023/09/02 05:48:14;;;;;;;6.35;4.57;;;;;;;12.82;100.00;101958.69;5052623;28;20067;-77
2023/09/02 05:50:42;;;;;;;5.32;4.65;;;;;;;12.88;100.00;101950.81;5037096;28;20087;-77
2023/09/02 05:53:09;;;;;;;7.68;4.93;;;;;;;12.97;100.00;101947.38;5063604;28;20044;-77
2023/09/02 05:55:37;;;;;;;7.65;5.25;;;;;;;13.07;100.00;101954.53;5006148;28;20056;-77
2023/09/02 05:58:04;;;;;;;7.28;4.75;;;;;;;13.15;100.00;101946.69;5056234;28;20041;-78
2023/09/02 06:00:32;;;;;;;6.38;5.38;;;;;;;13.25;100.00;101950.28;5017190;28;20049;-77
2023/09/02 06:02:59;;;;;;;6.05;5.28;;;;;;;13.33;100.00;101956.59;5060305;28;20537;-77
2023/09/02 06:05:29;;;;;;;6.72;5.68;;;;;;;13.43;100.00;101957.56;5044256;28;21030;-77
2023/09/02 06:07:56;;;;;;;6.20;4.93;;;;;;;13.50;100.00;101948.81;5063640;28;20544;-77
2023/09/02 06:10:23;;;;;;;5.82;5.28;;;;;;;13.58;100.00;101946.25;5056217;28;20049;-77
2023/09/02 06:12:51;;;;;;;6.00;5.20;;;;;;;13.65;100.00;101954.25;4997947;28;20052;-77
2023/09/02 06:15:18;;;;;;;7.22;5.13;;;;;;;13.73;100.00;101956.06;5039097;28;20060;-77
2023/09/02 06:17:45;;;;;;;8.82;5.50;;;;;;;13.81;100.00;101951.72;5050073;28;20055;-77
2023/09/02 06:20:16;;;;;;;6.45;5.72;;;;;;;13.87;100.00;101957.03;5066164;28;20037;-77
2023/09/02 06:22:43;;;;;;;5.95;5.07;;;;;;;14.02;100.00;101962.44;5051144;28;20051;-77
2023/09/02 06:25:10;;;;;;;6.13;4.55;;;;;;;14.18;100.00;101966.09;5062785;28;20055;-76
2023/09/02 06:27:38;;;;;;;7.75;6.95;;;;;;;14.31;100.00;101972.38;5024335;28;22442;-77
2023/09/02 06:30:07;;;;;;;6.95;6.00;;;;;;;14.43;100.00;101980.38;5028559;28;20040;-78
2023/09/02 06:32:34;;;;;;;8.43;6.38;;;;;;;14.58;100.00;101973.41;5065853;28;20064;-78
2023/09/02 06:35:04;;;;;;;9.88;7.13;;;;;;;14.70;100.00;101973.44;5034985;28;20063;-77
2023/09/02 06:37:32;;;;;;;8.18;7.07;;;;;;;14.80;100.00;101977.94;5065733;28;20044;-77
2023/09/02 06:39:59;;;;;;;10.45;7.30;;;;;;;14.91;100.00;101983.25;5068490;28;20409;-77
2023/09/02 06:42:26;;;;;;;9.35;7.50;;;;;;;15.07;100.00;101986.88;5065431;28;20048;-77
2023/09/02 06:44:54;;;;;;;10.88;7.90;;;;;;;15.25;100.00;101991.31;5012778;28;20134;-77
2023/09/02 06:47:21;;;;;;;8.88;6.78;;;;;;;15.38;100.00;101989.56;5042293;28;20544;-78
2023/09/02 06:49:49;;;;;;;8.00;7.05;;;;;;;15.53;100.00;101991.38;5058646;28;20505;-77
2023/09/02 06:52:16;;;;;;;6.20;5.60;;;;;;;15.68;100.00;101999.34;5061224;28;20049;-78
2023/09/02 06:54:47;;;;;;;8.32;5.68;;;;;;;15.86;100.00;101997.59;5060018;28;20045;-78
2023/09/02 06:57:16;;;;;;;6.10;5.55;;;;;;;16.06;100.00;102006.44;5045012;28;20056;-77
2023/09/02 06:59:43;;;;;;;9.50;5.55;;;;;;;16.22;100.00;102010.00;5009943;28;20079;-78
2023/09/02 07:02:14;;;;;;;5.20;4.68;;;;;;;16.36;100.00;102017.94;5025476;28;20037;-78
2023/09/02 07:04:41;;;;;;;6.32;4.22;;;;;;;16.50;100.00;102018.78;5042835;28;20057;-78
2023/09/02 07:07:09;;;;;;;4.78;4.22;;;;;;;16.67;100.00;102016.09;5048011;28;20084;-78
2023/09/02 07:09:36;;;;;;;4.72;3.85;;;;;;;16.89;100.00;102018.69;5024780;28;20438;-78
2023/09/02 07:12:04;;;;;;;4.28;2.88;;;;;;;17.02;100.00;102015.06;5045991;28;20044;-77
2023/09/02 07:14:31;;;;;;;4.43;3.45;;;;;;;17.19;100.00;102011.44;5006124;28;22878;-79
2023/09/02 07:16:59;;;;;;;5.15;2.35;;;;;;;17.44;100.00;102022.81;5023207;28;20049;-78
2023/09/02 07:19:26;;;;;;;4.30;2.35;;;;;;;17.64;100.00;102020.03;5057033;28;20048;-79
2023/09/02 07:21:56;;;;;;;4.97;1.88;;;;;;;17.78;100.00;102023.44;5044885;28;20044;-78
2023/09/02 07:24:23;;;;;;;2.65;2.03;;;;;;;17.82;100.00;102017.19;5032247;28;20049;-79
2023/09/02 07:26:51;;;;;;;3.92;1.98;;;;;;;17.87;100.00;102023.41;5038165;28;20037;-79
2023/09/02 07:29:19;;;;;;;1.45;1.23;;;;;;;17.88;100.00;102030.53;5075023;28;20048;-78
2023/09/02 07:31:48;;;;;;;2.45;1.50;;;;;;;17.90;100.00;102023.38;4992992;28;20052;-77
2023/09/02 07:34:15;;;;;;;1.50;1.30;;;;;;;17.89;100.00;102028.72;5049994;28;20032;-79
2023/09/02 07:36:43;;;;;;;2.17;1.33;;;;;;;17.92;100.00;102031.38;5055644;28;20048;-79
2023/09/02 07:39:12;;;;;;;1.48;1.38;;;;;;;17.98;100.00;102031.31;5056174;28;20067;-78
2023/09/02 07:41:40;;;;;;;1.42;1.10;;;;;;;18.05;100.00;102037.47;5040765;28;20053;-77
2023/09/02 07:44:08;;;;;;;6.57;1.88;;;;;;;18.14;100.00;102040.06;5060158;28;20036;-79
2023/09/02 07:46:36;;;;;;;2.72;1.00;;;;;;;18.18;100.00;102048.91;4994995;28;20441;-78
2023/09/02 07:49:03;;;;;;;5.35;1.27;;;;;;;18.11;100.00;102048.97;5030663;28;20055;-79
2023/09/02 07:51:31;;;;;;;2.65;1.48;;;;;;;18.13;100.00;102056.97;5031413;28;20116;-78
2023/09/02 07:53:58;;;;;;;2.40;1.20;;;;;;;18.11;100.00;102051.66;5046412;28;20403;-80
2023/09/02 07:56:28;;;;;;;1.33;0.98;;;;;;;18.09;100.00;102053.44;5069741;28;20067;-79
2023/09/02 07:58:56;;;;;;;1.50;1.38;;;;;;;18.17;100.00;102053.38;5040582;28;20686;-80
2023/09/02 08:01:23;;;;;;;1.48;1.23;;;;;;;18.19;100.00;102054.25;5019460;28;20049;-78
2023/09/02 08:03:51;;;;;;;6.88;2.35;;;;;;;18.23;100.00;102066.66;5026128;28;20169;-78
2023/09/02 08:06:19;;;;;;;1.63;1.30;;;;;;;18.24;100.00;102059.53;5032085;28;20516;-78
2023/09/02 08:08:46;;;;;;;1.17;1.00;;;;;;;18.24;100.00;102060.44;5044798;28;20068;-77
2023/09/02 08:11:17;;;;;;;4.18;1.50;;;;;;;18.24;100.00;102064.84;5038590;28;20494;-80
2023/09/02 08:13:45;;;;;;;2.85;1.45;;;;;;;18.34;100.00;102071.91;5058518;28;20404;-79
2023/09/02 08:16:12;;;;;;;1.50;1.20;;;;;;;18.49;100.00;102068.19;5024335;28;20048;-78
2023/09/02 08:18:40;;;;;;;2.80;1.15;;;;;;;18.59;100.00;102072.53;5046250;28;20485;-80
2023/09/02 08:21:09;;;;;;;4.00;1.23;;;;;;;18.75;100.00;102075.94;5037455;28;20059;-79
2023/09/02 08:23:38;;;;;;;1.55;1.45;;;;;;;18.85;100.00;102071.41;5046383;28;20045;-78
2023/09/02 08:26:12;;;;;;;3.83;1.23;;;;;;;19.03;100.00;102072.94;5054795;28;20053;-79
2023/09/02 08:28:41;;;;;;;2.95;1.70;;;;;;;19.15;100.00;102071.88;5036834;28;20052;-78
2023/09/02 08:31:11;;;;;;;3.22;1.60;;;;;;;19.26;100.00;102075.31;5031061;28;20045;-78
2023/09/02 08:33:39;;;;;;;3.05;1.73;;;;;;;19.38;100.00;102084.97;5002308;28;20044;-77
2023/09/02 08:36:13;;;;;;;9.43;1.67;;;;;;;19.59;100.00;102094.47;5044149;28;20048;-78
2023/09/02 08:38:41;;;;;;;3.83;1.50;;;;;;;19.86;100.00;102088.72;5037462;28;20398;-77
2023/09/02 08:41:13;;;;;;;3.13;1.30;;;;;;;20.08;100.00;102093.72;5022817;28;20140;-77
2023/09/02 08:43:41;;;;;;;3.42;1.70;;;;;;;20.23;100.00;102093.47;5055052;28;20033;-78
2023/09/02 08:46:12;;;;;;;4.05;1.63;;;;;;;20.28;100.00;102100.53;5035774;28;20092;-78
2023/09/02 08:48:42;;;;;;;4.53;2.13;;;;;;;20.30;100.00;102106.72;5003399;28;20055;-78
2023/09/02 08:51:11;;;;;;;2.40;1.80;;;;;;;20.30;100.00;102096.91;5040828;28;20052;-79
2023/09/02 08:53:39;;;;;;;3.35;1.73;;;;;;;20.39;100.00;102094.06;5008957;28;20414;-78
2023/09/02 08:56:10;;;;;;;2.50;1.60;;;;;;;20.36;100.00;102103.94;5046368;28;20531;-77
2023/09/02 08:58:39;;;;;;;4.03;2.58;;;;;;;20.24;100.00;102102.38;5011618;28;20445;-78
2023/09/02 09:01:07;;;;;;;4.30;1.90;;;;;;;20.15;100.00;102099.84;5028012;28;20057;-77
2023/09/02 09:03:40;;;;;;;4.25;2.20;;;;;;;20.12;100.00;102114.16;5008704;28;20490;-78
2023/09/02 09:06:10;;;;;;;3.72;2.05;;;;;;;19.98;100.00;102122.44;5034606;28;20072;-80
2023/09/02 09:08:39;;;;;;;3.95;1.80;;;;;;;19.91;100.00;102117.22;5030470;28;20047;-79
2023/09/02 09:11:07;;;;;;;5.95;2.10;;;;;;;19.90;100.00;102121.66;5038906;28;20814;-78
2023/09/02 09:13:43;;;;;;;4.18;1.85;;;;;;;19.83;100.00;102117.31;5048586;28;20063;-79
2023/09/02 09:16:23;;;;;;;3.03;1.77;;;;;;;19.87;100.00;102127.06;5054032;28;20041;-78
2023/09/02 09:18:51;;;;;;;2.67;2.15;;;;;;;19.95;100.00;102137.66;5052663;28;20068;-80
2023/09/02 09:21:19;;;;;;;6.00;2.15;;;;;;;20.06;100.00;102146.38;5040301;28;20059;-79
2023/09/02 09:23:47;;;;;;;4.72;2.10;;;;;;;20.17;100.00;102151.53;5024281;28;20056;-80
2023/09/02 09:26:15;;;;;;;3.13;2.38;;;;;;;20.19;100.00;102153.31;5023867;28;20052;-79
2023/09/02 09:28:54;;;;;;;5.03;2.75;;;;;;;20.22;100.00;102157.72;5034381;28;20052;-79
2023/09/02 09:31:23;;;;;;;4.95;2.75;;;;;;;20.30;100.00;102165.63;5025442;28;20051;-79
2023/09/02 09:33:53;;;;;;;3.92;2.45;;;;;;;20.29;100.00;102171.91;5048764;28;20056;-78
2023/09/02 09:36:22;;;;;;;4.07;2.85;;;;;;;20.29;100.00;102175.47;5025005;28;20429;-78
2023/09/02 09:38:53;;;;;;;5.60;3.25;;;;;;;20.33;100.00;102174.50;5027254;28;20927;-77
2023/09/02 09:41:22;;;;;;;4.38;3.00;;;;;;;20.38;100.00;102171.75;5041574;28;20041;-79
2023/09/02 09:44:10;;;;;;;4.18;2.35;;;;;;;20.35;100.00;102166.44;5055178;28;20049;-79
2023/09/02 09:46:44;;;;;;;5.43;2.50;;;;;;;20.29;100.00;102171.91;5060891;28;20072;-83
2023/09/02 09:49:25;;;;;;;4.05;2.05;;;;;;;20.22;100.00;102165.75;5054052;28;20067;-81
2023/09/02 09:52:00;;;;;;;3.55;2.05;;;;;;;20.27;100.00;102163.91;5041046;28;20056;-84
2023/09/02 09:54:38;;;;;;;3.47;2.42;;;;;;;20.34;100.00;102162.88;5055900;28;20045;-82
2023/09/02 09:57:08;;;;;;;5.32;2.55;;;;;;;20.38;100.00;102172.63;5047934;28;20048;-79
2023/09/02 09:59:36;;;;;;;4.97;2.20;;;;;;;20.40;100.00;102167.25;5040125;28;20059;-80
2023/09/02 10:02:05;;;;;;;3.28;2.65;;;;;;;20.44;100.00;102169.84;5054402;28;20425;-81
2023/09/02 10:04:33;;;;;;;4.07;2.10;;;;;;;20.45;100.00;102178.75;5031020;28;20052;-81
2023/09/02 10:07:02;;;;;;;4.45;2.40;;;;;;;20.48;100.00;102180.50;5040003;28;20051;-80
2023/09/02 10:09:44;;;;;;;7.07;3.17;;;;;;;20.48;100.00;102177.84;5061627;28;20505;-81
2023/09/02 10:12:13;;;;;;;6.85;2.95;;;;;;;20.51;100.00;102181.34;5053231;28;20049;-82
2023/09/02 10:14:42;;;;;;;4.45;2.85;;;;;;;20.60;100.00;102185.66;5058640;28;20044;-81
2023/09/02 10:17:10;;;;;;;7.68;2.65;;;;;;;20.64;100.00;102182.03;5034918;28;20055;-84
2023/09/02 10:19:39;;;;;;;7.30;3.15;;;;;;;20.67;100.00;102190.00;5047313;28;20506;-85
2023/09/02 10:22:06;;;;;;;5.25;3.80;;;;;;;20.68;100.00;102199.84;5037021;28;20044;-83
2023/09/02 10:24:44;;;;;;;6.30;3.60;;;;;;;20.71;100.00;102188.16;5063575;28;20048;-84
2023/09/02 10:27:18;;;;;;;6.40;3.25;;;;;;;20.72;100.00;102192.59;5069036;28;20046;-82
2023/09/02 10:29:56;;;;;;;5.35;4.00;;;;;;;20.75;100.00;102204.16;5070919;28;20049;-82
2023/09/02 10:32:32;;;;;;;5.10;3.10;;;;;;;20.77;100.00;102202.31;5055010;28;20059;-83
2023/09/02 10:35:18;;;;;;;4.90;2.95;;;;;;;20.79;100.00;102203.22;5044946;28;20041;-82
2023/09/02 10:38:02;;;;;;;4.63;2.70;;;;;;;20.82;100.00;102202.25;5056473;28;20041;-85
2023/09/02 10:40:40;;;;;;;4.15;3.03;;;;;;;20.80;100.00;102196.03;5087478;28;20049;-81
2023/09/02 10:43:09;;;;;;;3.60;2.45;;;;;;;20.79;100.00;102199.63;5035841;28;20080;-81
2023/09/02 10:45:37;;;;;;;5.32;2.80;;;;;;;20.81;100.00;102200.47;5040946;28;20056;-80
2023/09/02 10:48:05;;;;;;;3.78;2.60;;;;;;;20.82;100.00;102208.50;5046297;28;20049;-79
2023/09/02 10:50:34;;;;;;;4.65;2.85;;;;;;;20.87;100.00;102207.50;5070083;28;20408;-80
2023/09/02 10:53:01;;;;;;;5.55;3.03;;;;;;;20.91;100.00;102214.63;5005687;28;20048;-78
2023/09/02 10:56:01;;;;;;;6.32;3.35;;;;;;;20.98;100.00;102210.88;5018412;28;20049;-79
2023/09/02 10:58:46;;;;;;;6.97;2.55;;;;;;;20.99;100.00;102212.66;5042812;28;20045;-79
2023/09/02 11:01:15;;;;;;;4.88;2.60;;;;;;;20.92;100.00;102214.56;5023437;28;20049;-79
2023/09/02 11:03:48;;;;;;;3.63;2.60;;;;;;;20.88;100.00;102209.28;5058708;28;20500;-78
2023/09/02 11:06:16;;;;;;;6.65;3.20;;;;;;;20.94;100.00;102215.41;5026389;28;20052;-77
2023/09/02 11:08:49;;;;;;;5.38;2.40;;;;;;;20.99;100.00;102218.91;5025330;28;20052;-76
2023/09/02 11:11:18;;;;;;;6.75;2.80;;;;;;;21.03;100.00;102228.63;5047824;28;20493;-76
2023/09/02 11:14:07;;;;;;;2.90;2.42;;;;;;;21.11;100.00;102216.91;5033179;28;20048;-75
2023/09/02 11:16:40;;;;;;;5.77;2.60;;;;;;;21.12;100.00;102221.38;5047909;28;20052;-75
2023/09/02 11:19:08;;;;;;;4.65;2.47;;;;;;;21.14;100.00;102219.53;5055793;28;20048;-76
2023/09/02 11:21:46;;;;;;;6.13;2.70;;;;;;;21.17;100.00;102224.81;5051413;28;20048;-78
2023/09/02 11:24:20;;;;;;;7.22;2.28;;;;;;;21.20;100.00;102211.38;5021750;28;20060;-77
2023/09/02 11:27:09;;;;;;;3.40;1.95;;;;;;;21.27;99.86;102231.78;5047877;28;20055;-79